sensor_id;sensor_type;location;lat;lon;timestamp;P1;durP1;ratioP1;P2;durP2;ratioP2
49800;SDS011;35698;50.232;30.540;2023-04-08T15:25:07;8.77;;;4.49;;
49800;SDS011;35698;50.232;30.540;2023-04-08T15:26:19;9.77;;;4.67;;
49800;SDS011;35698;50.232;30.540;2023-04-08T15:27:22;9.08;;;4.29;;
49800;SDS011;35698;50.232;30.540;2023-04-08T15:28:26;13.44;;;4.33;;
49800;SDS011;35698;50.232;30.540;2023-04-08T15:29:37;8.33;;;4.41;;
49800;SDS011;35698;50.232;30.540;2023-04-08T15:30:40;11.48;;;5.46;;
49800;SDS011;35698;50.232;30.540;2023-04-08T15:31:45;10.21;;;4.74;;
49800;SDS011;35698;50.232;30.540;2023-04-08T15:32:57;11.70;;;5.05;;
49800;SDS011;35698;50.232;30.540;2023-04-08T15:34:00;10.07;;;4.92;;
49800;SDS011;35698;50.232;30.540;2023-04-08T15:35:18;11.68;;;5.12;;
49800;SDS011;35698;50.232;30.540;2023-04-08T15:36:23;13.51;;;5.41;;
49800;SDS011;35698;50.232;30.540;2023-04-08T15:37:34;17.33;;;6.74;;
49800;SDS011;35698;50.232;30.540;2023-04-08T15:38:37;12.34;;;5.33;;
49800;SDS011;35698;50.232;30.540;2023-04-08T15:39:40;9.61;;;5.46;;
49800;SDS011;35698;50.232;30.540;2023-04-08T15:40:44;12.96;;;5.79;;
49800;SDS011;35698;50.232;30.540;2023-04-08T15:41:49;11.11;;;5.39;;
49800;SDS011;35698;50.232;30.540;2023-04-08T15:43:01;7.95;;;4.40;;
49800;SDS011;35698;50.232;30.540;2023-04-08T15:44:04;13.12;;;5.57;;
49800;SDS011;35698;50.232;30.540;2023-04-08T15:45:07;10.54;;;5.39;;
49800;SDS011;35698;50.232;30.540;2023-04-08T15:46:25;9.51;;;5.77;;
49800;SDS011;35698;50.232;30.540;2023-04-08T15:47:28;15.70;;;6.41;;
49800;SDS011;35698;50.232;30.540;2023-04-08T15:48:40;13.59;;;6.17;;
49800;SDS011;35698;50.232;30.540;2023-04-08T15:49:43;15.21;;;7.05;;
49800;SDS011;35698;50.232;30.540;2023-04-08T15:50:54;13.25;;;6.04;;
49800;SDS011;35698;50.232;30.540;2023-04-08T15:51:57;13.77;;;7.12;;
49800;SDS011;35698;50.232;30.540;2023-04-08T15:53:19;13.11;;;6.08;;
49800;SDS011;35698;50.232;30.540;2023-04-08T15:54:22;16.29;;;7.40;;
49800;SDS011;35698;50.232;30.540;2023-04-08T15:55:37;14.79;;;7.52;;
49800;SDS011;35698;50.232;30.540;2023-04-08T15:56:41;22.34;;;9.68;;
49800;SDS011;35698;50.232;30.540;2023-04-08T15:59:27;18.42;;;9.77;;
49800;SDS011;35698;50.232;30.540;2023-04-08T16:00:38;16.05;;;8.76;;
49800;SDS011;35698;50.232;30.540;2023-04-08T16:01:42;16.34;;;7.56;;
49800;SDS011;35698;50.232;30.540;2023-04-08T16:03:03;16.67;;;8.48;;
49800;SDS011;35698;50.232;30.540;2023-04-08T16:04:14;11.69;;;6.71;;
49800;SDS011;35698;50.232;30.540;2023-04-08T16:05:17;14.83;;;6.96;;
49800;SDS011;35698;50.232;30.540;2023-04-08T16:06:38;14.87;;;6.45;;
49800;SDS011;35698;50.232;30.540;2023-04-08T16:07:42;9.24;;;5.63;;
49800;SDS011;35698;50.232;30.540;2023-04-08T16:08:48;11.91;;;5.65;;
49800;SDS011;35698;50.232;30.540;2023-04-08T16:10:00;10.59;;;6.02;;
49800;SDS011;35698;50.232;30.540;2023-04-08T16:11:03;15.04;;;6.16;;
49800;SDS011;35698;50.232;30.540;2023-04-08T16:12:25;11.14;;;4.79;;
49800;SDS011;35698;50.232;30.540;2023-04-08T16:13:28;9.48;;;4.79;;
49800;SDS011;35698;50.232;30.540;2023-04-08T16:14:40;9.39;;;4.32;;
49800;SDS011;35698;50.232;30.540;2023-04-08T16:15:43;10.46;;;5.07;;
49800;SDS011;35698;50.232;30.540;2023-04-08T16:17:05;7.35;;;4.03;;
49800;SDS011;35698;50.232;30.540;2023-04-08T16:18:16;14.80;;;5.07;;
49800;SDS011;35698;50.232;30.540;2023-04-08T16:19:20;10.76;;;5.24;;
49800;SDS011;35698;50.232;30.540;2023-04-08T16:20:41;7.62;;;4.41;;
49800;SDS011;35698;50.232;30.540;2023-04-08T16:21:48;10.22;;;4.46;;
49800;SDS011;35698;50.232;30.540;2023-04-08T16:22:59;8.73;;;4.39;;
49800;SDS011;35698;50.232;30.540;2023-04-08T16:24:02;8.20;;;4.83;;
49800;SDS011;35698;50.232;30.540;2023-04-08T16:25:14;10.71;;;4.64;;
49800;SDS011;35698;50.232;30.540;2023-04-08T16:26:18;10.93;;;5.13;;
49800;SDS011;35698;50.232;30.540;2023-04-08T16:27:29;15.38;;;5.05;;
49800;SDS011;35698;50.232;30.540;2023-04-08T16:28:33;11.45;;;5.36;;
49800;SDS011;35698;50.232;30.540;2023-04-08T16:29:44;13.70;;;6.48;;
49800;SDS011;35698;50.232;30.540;2023-04-08T16:30:47;10.06;;;6.05;;
49800;SDS011;35698;50.232;30.540;2023-04-08T16:31:51;15.03;;;6.11;;
49800;SDS011;35698;50.232;30.540;2023-04-08T16:33:05;18.14;;;7.44;;
49800;SDS011;35698;50.232;30.540;2023-04-08T16:34:08;13.58;;;5.94;;
49800;SDS011;35698;50.232;30.540;2023-04-08T16:35:12;12.18;;;6.24;;
49800;SDS011;35698;50.232;30.540;2023-04-08T16:36:33;15.41;;;6.22;;
49800;SDS011;35698;50.232;30.540;2023-04-08T16:37:49;12.08;;;5.90;;
49800;SDS011;35698;50.232;30.540;2023-04-08T16:38:53;16.11;;;7.19;;
49800;SDS011;35698;50.232;30.540;2023-04-08T16:40:19;11.47;;;5.43;;
49800;SDS011;35698;50.232;30.540;2023-04-08T16:41:41;14.63;;;5.53;;
49800;SDS011;35698;50.232;30.540;2023-04-08T16:42:55;12.93;;;6.35;;
49800;SDS011;35698;50.232;30.540;2023-04-08T16:43:58;14.64;;;5.69;;
49800;SDS011;35698;50.232;30.540;2023-04-08T16:45:10;12.55;;;5.80;;
49800;SDS011;35698;50.232;30.540;2023-04-08T16:46:14;12.85;;;5.69;;
49800;SDS011;35698;50.232;30.540;2023-04-08T16:47:19;12.66;;;6.46;;
49800;SDS011;35698;50.232;30.540;2023-04-08T16:48:40;11.22;;;6.01;;
49800;SDS011;35698;50.232;30.540;2023-04-08T16:49:46;12.98;;;6.71;;
49800;SDS011;35698;50.232;30.540;2023-04-08T16:50:57;10.54;;;6.66;;
49800;SDS011;35698;50.232;30.540;2023-04-08T16:52:02;13.42;;;5.62;;
49800;SDS011;35698;50.232;30.540;2023-04-08T16:53:13;9.24;;;5.79;;
49800;SDS011;35698;50.232;30.540;2023-04-08T16:54:17;9.56;;;6.01;;
49800;SDS011;35698;50.232;30.540;2023-04-08T16:55:30;11.68;;;6.72;;
49800;SDS011;35698;50.232;30.540;2023-04-08T16:56:34;13.36;;;6.35;;
49800;SDS011;35698;50.232;30.540;2023-04-08T16:57:37;13.04;;;7.23;;
49800;SDS011;35698;50.232;30.540;2023-04-08T16:58:59;20.82;;;6.47;;
49800;SDS011;35698;50.232;30.540;2023-04-08T17:00:10;11.83;;;6.68;;
49800;SDS011;35698;50.232;30.540;2023-04-08T17:01:13;10.57;;;6.46;;
49800;SDS011;35698;50.232;30.540;2023-04-08T17:02:17;11.64;;;6.51;;
49800;SDS011;35698;50.232;30.540;2023-04-08T17:03:30;19.02;;;6.36;;
49800;SDS011;35698;50.232;30.540;2023-04-08T17:04:34;15.07;;;6.40;;
49800;SDS011;35698;50.232;30.540;2023-04-08T17:05:37;11.43;;;6.61;;
49800;SDS011;35698;50.232;30.540;2023-04-08T17:06:50;14.89;;;6.05;;
49800;SDS011;35698;50.232;30.540;2023-04-08T17:07:56;17.26;;;6.47;;
49800;SDS011;35698;50.232;30.540;2023-04-08T17:09:00;18.20;;;6.03;;
49800;SDS011;35698;50.232;30.540;2023-04-08T17:10:13;15.10;;;5.71;;
49800;SDS011;35698;50.232;30.540;2023-04-08T17:11:17;8.55;;;5.52;;
49800;SDS011;35698;50.232;30.540;2023-04-08T17:12:21;12.26;;;5.65;;
49800;SDS011;35698;50.232;30.540;2023-04-08T17:13:32;12.58;;;6.36;;
49800;SDS011;35698;50.232;30.540;2023-04-08T17:14:36;12.96;;;5.66;;
49800;SDS011;35698;50.232;30.540;2023-04-08T17:15:47;12.17;;;7.18;;
49800;SDS011;35698;50.232;30.540;2023-04-08T17:16:51;20.11;;;5.24;;
49800;SDS011;35698;50.232;30.540;2023-04-08T17:17:57;11.12;;;5.89;;
49800;SDS011;35698;50.232;30.540;2023-04-08T17:19:01;14.13;;;5.11;;
49800;SDS011;35698;50.232;30.540;2023-04-08T17:20:04;7.20;;;4.81;;
49800;SDS011;35698;50.232;30.540;2023-04-08T17:21:10;14.17;;;5.64;;
49800;SDS011;35698;50.232;30.540;2023-04-08T17:22:27;13.61;;;5.57;;
49800;SDS011;35698;50.232;30.540;2023-04-08T17:23:30;10.79;;;6.14;;
49800;SDS011;35698;50.232;30.540;2023-04-08T17:24:42;8.56;;;5.52;;
49800;SDS011;35698;50.232;30.540;2023-04-08T17:25:46;8.23;;;4.89;;
49800;SDS011;35698;50.232;30.540;2023-04-08T17:26:57;15.57;;;5.51;;
49800;SDS011;35698;50.232;30.540;2023-04-08T17:28:00;10.43;;;5.31;;
49800;SDS011;35698;50.232;30.540;2023-04-08T17:29:11;9.22;;;5.36;;
49800;SDS011;35698;50.232;30.540;2023-04-08T17:30:15;13.73;;;5.32;;
49800;SDS011;35698;50.232;30.540;2023-04-08T17:31:18;9.19;;;5.66;;
49800;SDS011;35698;50.232;30.540;2023-04-08T17:32:24;10.62;;;5.08;;
49800;SDS011;35698;50.232;30.540;2023-04-08T17:33:28;9.76;;;6.11;;
49800;SDS011;35698;50.232;30.540;2023-04-08T17:34:39;12.98;;;5.78;;
49800;SDS011;35698;50.232;30.540;2023-04-08T17:35:42;11.37;;;6.69;;
49800;SDS011;35698;50.232;30.540;2023-04-08T17:36:46;13.63;;;5.94;;
49800;SDS011;35698;50.232;30.540;2023-04-08T17:37:49;13.69;;;5.31;;
49800;SDS011;35698;50.232;30.540;2023-04-08T17:38:52;16.62;;;5.49;;
49800;SDS011;35698;50.232;30.540;2023-04-08T17:40:03;12.75;;;6.71;;
49800;SDS011;35698;50.232;30.540;2023-04-08T17:41:08;13.48;;;5.89;;
49800;SDS011;35698;50.232;30.540;2023-04-08T17:42:11;13.50;;;6.39;;
49800;SDS011;35698;50.232;30.540;2023-04-08T17:43:38;9.20;;;6.28;;
49800;SDS011;35698;50.232;30.540;2023-04-08T17:44:41;10.56;;;5.87;;
49800;SDS011;35698;50.232;30.540;2023-04-08T17:45:50;13.98;;;6.50;;
49800;SDS011;35698;50.232;30.540;2023-04-08T17:46:53;13.78;;;6.96;;
49800;SDS011;35698;50.232;30.540;2023-04-08T17:48:07;12.04;;;5.80;;
49800;SDS011;35698;50.232;30.540;2023-04-08T17:49:12;13.64;;;6.16;;
49800;SDS011;35698;50.232;30.540;2023-04-08T17:50:16;14.35;;;6.46;;
49800;SDS011;35698;50.232;30.540;2023-04-08T17:51:20;9.61;;;6.30;;
49800;SDS011;35698;50.232;30.540;2023-04-08T17:52:23;13.11;;;6.88;;
49800;SDS011;35698;50.232;30.540;2023-04-08T17:53:35;12.00;;;7.23;;
49800;SDS011;35698;50.232;30.540;2023-04-08T17:54:42;14.79;;;7.51;;
49800;SDS011;35698;50.232;30.540;2023-04-08T17:56:06;18.77;;;9.15;;
49800;SDS011;35698;50.232;30.540;2023-04-08T17:57:10;16.01;;;8.54;;
49800;SDS011;35698;50.232;30.540;2023-04-08T17:58:21;15.14;;;8.29;;
49800;SDS011;35698;50.232;30.540;2023-04-08T17:59:25;17.56;;;8.93;;
49800;SDS011;35698;50.232;30.540;2023-04-08T18:00:43;15.62;;;10.12;;
49800;SDS011;35698;50.232;30.540;2023-04-08T18:01:51;16.82;;;8.72;;
49800;SDS011;35698;50.232;30.540;2023-04-08T18:02:55;13.78;;;8.72;;
49800;SDS011;35698;50.232;30.540;2023-04-08T18:04:00;13.41;;;9.14;;
49800;SDS011;35698;50.232;30.540;2023-04-08T18:05:04;14.80;;;9.09;;
49800;SDS011;35698;50.232;30.540;2023-04-08T18:06:35;14.28;;;9.56;;
49800;SDS011;35698;50.232;30.540;2023-04-08T18:07:39;17.06;;;10.02;;
49800;SDS011;35698;50.232;30.540;2023-04-08T18:08:42;19.63;;;9.69;;
49800;SDS011;35698;50.232;30.540;2023-04-08T18:09:48;17.60;;;9.83;;
49800;SDS011;35698;50.232;30.540;2023-04-08T18:11:03;14.94;;;9.03;;
49800;SDS011;35698;50.232;30.540;2023-04-08T18:12:07;15.27;;;9.48;;
49800;SDS011;35698;50.232;30.540;2023-04-08T18:13:11;16.72;;;8.66;;
49800;SDS011;35698;50.232;30.540;2023-04-08T18:14:14;13.45;;;8.33;;
49800;SDS011;35698;50.232;30.540;2023-04-08T18:15:25;16.60;;;8.90;;
49800;SDS011;35698;50.232;30.540;2023-04-08T18:16:29;12.81;;;8.49;;
49800;SDS011;35698;50.232;30.540;2023-04-08T18:17:40;15.27;;;8.18;;
49800;SDS011;35698;50.232;30.540;2023-04-08T18:18:43;16.09;;;9.62;;
49800;SDS011;35698;50.232;30.540;2023-04-08T18:20:05;19.04;;;9.51;;
49800;SDS011;35698;50.232;30.540;2023-04-08T18:21:09;16.97;;;9.59;;
49800;SDS011;35698;50.232;30.540;2023-04-08T18:22:13;16.46;;;9.74;;
49800;SDS011;35698;50.232;30.540;2023-04-08T18:23:25;16.09;;;9.41;;
49800;SDS011;35698;50.232;30.540;2023-04-08T18:24:28;16.00;;;8.71;;
49800;SDS011;35698;50.232;30.540;2023-04-08T18:25:49;14.39;;;7.82;;
49800;SDS011;35698;50.232;30.540;2023-04-08T18:27:01;13.44;;;7.89;;
49800;SDS011;35698;50.232;30.540;2023-04-08T18:28:07;11.34;;;7.96;;
49800;SDS011;35698;50.232;30.540;2023-04-08T18:29:28;11.69;;;7.57;;
49800;SDS011;35698;50.232;30.540;2023-04-08T18:30:39;18.05;;;7.89;;
49800;SDS011;35698;50.232;30.540;2023-04-08T18:31:43;18.34;;;7.78;;
49800;SDS011;35698;50.232;30.540;2023-04-08T18:33:05;15.73;;;9.81;;
49800;SDS011;35698;50.232;30.540;2023-04-08T18:34:08;21.61;;;8.02;;
49800;SDS011;35698;50.232;30.540;2023-04-08T18:35:19;14.97;;;8.75;;
49800;SDS011;35698;50.232;30.540;2023-04-08T18:36:22;14.54;;;8.28;;
49800;SDS011;35698;50.232;30.540;2023-04-08T18:37:44;14.40;;;8.09;;
49800;SDS011;35698;50.232;30.540;2023-04-08T18:38:54;13.36;;;8.43;;
49800;SDS011;35698;50.232;30.540;2023-04-08T18:39:58;16.66;;;9.12;;
49800;SDS011;35698;50.232;30.540;2023-04-08T18:41:19;17.73;;;8.82;;
49800;SDS011;35698;50.232;30.540;2023-04-08T18:42:25;9.22;;;6.91;;
49800;SDS011;35698;50.232;30.540;2023-04-08T18:43:42;17.23;;;8.81;;
49800;SDS011;35698;50.232;30.540;2023-04-08T18:44:46;15.18;;;8.27;;
49800;SDS011;35698;50.232;30.540;2023-04-08T18:46:07;13.09;;;8.03;;
49800;SDS011;35698;50.232;30.540;2023-04-08T18:47:10;15.04;;;7.81;;
49800;SDS011;35698;50.232;30.540;2023-04-08T18:48:31;14.80;;;8.30;;
49800;SDS011;35698;50.232;30.540;2023-04-08T18:49:45;17.74;;;8.53;;
49800;SDS011;35698;50.232;30.540;2023-04-08T18:50:49;15.81;;;9.13;;
49800;SDS011;35698;50.232;30.540;2023-04-08T18:52:06;16.41;;;9.31;;
49800;SDS011;35698;50.232;30.540;2023-04-08T18:53:09;18.06;;;9.56;;
49800;SDS011;35698;50.232;30.540;2023-04-08T18:54:13;11.37;;;7.98;;
49800;SDS011;35698;50.232;30.540;2023-04-08T18:55:16;16.32;;;9.16;;
49800;SDS011;35698;50.232;30.540;2023-04-08T18:56:38;15.21;;;8.94;;
49800;SDS011;35698;50.232;30.540;2023-04-08T18:57:50;13.78;;;8.56;;
49800;SDS011;35698;50.232;30.540;2023-04-08T18:58:53;12.95;;;8.31;;
49800;SDS011;35698;50.232;30.540;2023-04-08T19:00:05;13.38;;;8.14;;
49800;SDS011;35698;50.232;30.540;2023-04-08T19:01:09;12.22;;;8.32;;
49800;SDS011;35698;50.232;30.540;2023-04-08T19:02:16;15.45;;;9.18;;
49800;SDS011;35698;50.232;30.540;2023-04-08T19:03:19;14.91;;;9.75;;
49800;SDS011;35698;50.232;30.540;2023-04-08T19:04:41;15.94;;;8.99;;
49800;SDS011;35698;50.232;30.540;2023-04-08T19:05:47;16.99;;;8.33;;
49800;SDS011;35698;50.232;30.540;2023-04-08T19:06:50;14.82;;;9.19;;
49800;SDS011;35698;50.232;30.540;2023-04-08T19:08:02;14.84;;;9.46;;
49800;SDS011;35698;50.232;30.540;2023-04-08T19:09:05;16.57;;;9.17;;
49800;SDS011;35698;50.232;30.540;2023-04-08T19:10:09;19.63;;;9.69;;
49800;SDS011;35698;50.232;30.540;2023-04-08T19:11:21;12.68;;;8.79;;
49800;SDS011;35698;50.232;30.540;2023-04-08T19:12:24;14.72;;;8.68;;
49800;SDS011;35698;50.232;30.540;2023-04-08T19:13:36;17.31;;;9.12;;
49800;SDS011;35698;50.232;30.540;2023-04-08T19:14:39;15.61;;;9.79;;
49800;SDS011;35698;50.232;30.540;2023-04-08T19:15:42;16.31;;;9.68;;
49800;SDS011;35698;50.232;30.540;2023-04-08T19:16:54;16.46;;;10.27;;
49800;SDS011;35698;50.232;30.540;2023-04-08T19:17:57;12.84;;;9.22;;
49800;SDS011;35698;50.232;30.540;2023-04-08T19:19:09;18.16;;;9.68;;
49800;SDS011;35698;50.232;30.540;2023-04-08T19:20:12;22.75;;;11.12;;
49800;SDS011;35698;50.232;30.540;2023-04-08T19:21:16;36.62;;;10.95;;
49800;SDS011;35698;50.232;30.540;2023-04-08T19:22:19;29.26;;;12.32;;
49800;SDS011;35698;50.232;30.540;2023-04-08T19:23:31;18.72;;;10.83;;
49800;SDS011;35698;50.232;30.540;2023-04-08T19:24:34;17.24;;;10.44;;
49800;SDS011;35698;50.232;30.540;2023-04-08T19:25:38;21.95;;;12.31;;
49800;SDS011;35698;50.232;30.540;2023-04-08T19:26:49;18.88;;;11.93;;
49800;SDS011;35698;50.232;30.540;2023-04-08T19:27:52;18.39;;;11.76;;
49800;SDS011;35698;50.232;30.540;2023-04-08T19:29:03;18.88;;;12.81;;
49800;SDS011;35698;50.232;30.540;2023-04-08T19:30:07;22.45;;;11.45;;
49800;SDS011;35698;50.232;30.540;2023-04-08T19:31:29;19.51;;;10.88;;
49800;SDS011;35698;50.232;30.540;2023-04-08T19:32:40;19.54;;;12.37;;
49800;SDS011;35698;50.232;30.540;2023-04-08T19:33:44;19.69;;;12.00;;
49800;SDS011;35698;50.232;30.540;2023-04-08T19:35:05;18.04;;;12.79;;
49800;SDS011;35698;50.232;30.540;2023-04-08T19:36:09;23.32;;;12.86;;
49800;SDS011;35698;50.232;30.540;2023-04-08T19:37:13;17.46;;;11.70;;
49800;SDS011;35698;50.232;30.540;2023-04-08T19:38:25;19.26;;;12.63;;
49800;SDS011;35698;50.232;30.540;2023-04-08T19:39:28;23.04;;;12.83;;
49800;SDS011;35698;50.232;30.540;2023-04-08T19:40:50;20.48;;;14.36;;
49800;SDS011;35698;50.232;30.540;2023-04-08T19:42:01;21.07;;;15.19;;
49800;SDS011;35698;50.232;30.540;2023-04-08T19:43:04;18.62;;;13.41;;
49800;SDS011;35698;50.232;30.540;2023-04-08T19:44:26;19.61;;;14.04;;
49800;SDS011;35698;50.232;30.540;2023-04-08T19:45:51;25.22;;;14.04;;
49800;SDS011;35698;50.232;30.540;2023-04-08T19:46:55;25.46;;;13.96;;
49800;SDS011;35698;50.232;30.540;2023-04-08T19:47:59;20.86;;;13.58;;
49800;SDS011;35698;50.232;30.540;2023-04-08T19:49:03;31.80;;;15.78;;
49800;SDS011;35698;50.232;30.540;2023-04-08T19:50:07;29.86;;;16.35;;
49800;SDS011;35698;50.232;30.540;2023-04-08T19:51:17;21.41;;;14.55;;
49800;SDS011;35698;50.232;30.540;2023-04-08T19:52:20;23.62;;;15.93;;
49800;SDS011;35698;50.232;30.540;2023-04-08T19:53:31;26.13;;;16.92;;
49800;SDS011;35698;50.232;30.540;2023-04-08T19:54:35;21.68;;;15.29;;
49800;SDS011;35698;50.232;30.540;2023-04-08T19:55:59;27.18;;;17.56;;
49800;SDS011;35698;50.232;30.540;2023-04-08T19:57:21;26.63;;;17.70;;
49800;SDS011;35698;50.232;30.540;2023-04-08T19:58:25;27.21;;;18.66;;
49800;SDS011;35698;50.232;30.540;2023-04-08T19:59:42;36.24;;;18.37;;
49800;SDS011;35698;50.232;30.540;2023-04-08T20:00:46;25.24;;;16.85;;
49800;SDS011;35698;50.232;30.540;2023-04-08T20:01:57;26.57;;;17.29;;
49800;SDS011;35698;50.232;30.540;2023-04-08T20:03:00;28.98;;;17.16;;
49800;SDS011;35698;50.232;30.540;2023-04-08T20:04:14;27.98;;;18.48;;
49800;SDS011;35698;50.232;30.540;2023-04-08T20:05:18;24.27;;;17.44;;
49800;SDS011;35698;50.232;30.540;2023-04-08T20:06:23;27.63;;;17.88;;
49800;SDS011;35698;50.232;30.540;2023-04-08T20:07:44;28.73;;;19.69;;
49800;SDS011;35698;50.232;30.540;2023-04-08T20:09:02;25.22;;;19.85;;
49800;SDS011;35698;50.232;30.540;2023-04-08T20:10:06;31.80;;;19.89;;
49800;SDS011;35698;50.232;30.540;2023-04-08T20:11:18;27.14;;;19.18;;
49800;SDS011;35698;50.232;30.540;2023-04-08T20:12:24;26.79;;;19.73;;
49800;SDS011;35698;50.232;30.540;2023-04-08T20:13:28;33.14;;;20.09;;
49800;SDS011;35698;50.232;30.540;2023-04-08T20:34:04;25.25;;;16.96;;
49800;SDS011;35698;50.232;30.540;2023-04-08T20:35:15;31.15;;;19.69;;
49800;SDS011;35698;50.232;30.540;2023-04-08T20:36:18;25.11;;;17.80;;
49800;SDS011;35698;50.232;30.540;2023-04-08T20:37:23;24.30;;;17.92;;
49800;SDS011;35698;50.232;30.540;2023-04-08T20:38:27;27.34;;;17.93;;
49800;SDS011;35698;50.232;30.540;2023-04-08T20:39:46;23.77;;;18.55;;
49800;SDS011;35698;50.232;30.540;2023-04-08T20:40:49;27.22;;;18.26;;
49800;SDS011;35698;50.232;30.540;2023-04-08T20:42:07;28.03;;;18.94;;
49800;SDS011;35698;50.232;30.540;2023-04-08T20:43:10;33.73;;;18.88;;
49800;SDS011;35698;50.232;30.540;2023-04-08T20:44:13;27.47;;;18.80;;
49800;SDS011;35698;50.232;30.540;2023-04-08T20:45:28;26.43;;;19.26;;
49800;SDS011;35698;50.232;30.540;2023-04-08T20:46:31;27.08;;;18.72;;
49800;SDS011;35698;50.232;30.540;2023-04-08T20:47:47;30.27;;;18.83;;
49800;SDS011;35698;50.232;30.540;2023-04-08T20:48:51;25.07;;;19.36;;
49800;SDS011;35698;50.232;30.540;2023-04-08T20:50:04;26.28;;;20.19;;
49800;SDS011;35698;50.232;30.540;2023-04-08T20:51:09;30.64;;;19.87;;
49800;SDS011;35698;50.232;30.540;2023-04-08T20:52:12;30.53;;;18.39;;
49800;SDS011;35698;50.232;30.540;2023-04-08T20:53:33;28.32;;;20.16;;
49800;SDS011;35698;50.232;30.540;2023-04-08T20:54:40;28.90;;;19.48;;
49800;SDS011;35698;50.232;30.540;2023-04-08T20:55:43;29.99;;;19.39;;
49800;SDS011;35698;50.232;30.540;2023-04-08T20:56:54;26.86;;;19.37;;
49800;SDS011;35698;50.232;30.540;2023-04-08T20:57:57;26.71;;;20.59;;
49800;SDS011;35698;50.232;30.540;2023-04-08T20:59:08;30.93;;;20.50;;
49800;SDS011;35698;50.232;30.540;2023-04-08T21:00:13;29.14;;;16.07;;
49800;SDS011;35698;50.232;30.540;2023-04-08T21:01:19;22.22;;;13.44;;
49800;SDS011;35698;50.232;30.540;2023-04-08T21:02:43;18.44;;;12.60;;
49800;SDS011;35698;50.232;30.540;2023-04-08T21:03:55;18.13;;;13.18;;
49800;SDS011;35698;50.232;30.540;2023-04-08T21:05:00;22.25;;;13.38;;
49800;SDS011;35698;50.232;30.540;2023-04-08T21:06:19;27.25;;;12.46;;
49800;SDS011;35698;50.232;30.540;2023-04-08T21:07:26;17.67;;;11.24;;
49800;SDS011;35698;50.232;30.540;2023-04-08T21:08:30;20.04;;;11.70;;
49800;SDS011;35698;50.232;30.540;2023-04-08T21:09:51;22.24;;;13.42;;
49800;SDS011;35698;50.232;30.540;2023-04-08T21:10:54;19.82;;;11.86;;
49800;SDS011;35698;50.232;30.540;2023-04-08T21:11:57;16.99;;;12.69;;
49800;SDS011;35698;50.232;30.540;2023-04-08T21:13:01;19.69;;;12.34;;
49800;SDS011;35698;50.232;30.540;2023-04-08T21:14:14;18.60;;;11.58;;
49800;SDS011;35698;50.232;30.540;2023-04-08T21:15:19;17.65;;;11.86;;
49800;SDS011;35698;50.232;30.540;2023-04-08T21:16:30;18.59;;;12.63;;
49800;SDS011;35698;50.232;30.540;2023-04-08T21:17:35;17.60;;;11.84;;
49800;SDS011;35698;50.232;30.540;2023-04-08T21:19:02;18.34;;;11.67;;
49800;SDS011;35698;50.232;30.540;2023-04-08T21:20:10;17.92;;;12.51;;
49800;SDS011;35698;50.232;30.540;2023-04-08T21:21:16;17.34;;;12.05;;
49800;SDS011;35698;50.232;30.540;2023-04-08T21:22:37;19.66;;;12.36;;
49800;SDS011;35698;50.232;30.540;2023-04-08T21:23:40;18.90;;;11.27;;
49800;SDS011;35698;50.232;30.540;2023-04-08T21:24:45;16.74;;;11.81;;
49800;SDS011;35698;50.232;30.540;2023-04-08T21:26:12;18.53;;;11.94;;
49800;SDS011;35698;50.232;30.540;2023-04-08T21:27:29;15.84;;;11.16;;
49800;SDS011;35698;50.232;30.540;2023-04-08T21:28:34;15.64;;;9.98;;
49800;SDS011;35698;50.232;30.540;2023-04-08T21:29:40;19.02;;;11.75;;
49800;SDS011;35698;50.232;30.540;2023-04-08T21:31:11;19.61;;;12.19;;
49800;SDS011;35698;50.232;30.540;2023-04-08T21:32:15;19.63;;;12.99;;
49800;SDS011;35698;50.232;30.540;2023-04-08T21:33:18;18.07;;;12.21;;
49800;SDS011;35698;50.232;30.540;2023-04-08T21:34:56;22.56;;;12.51;;
49800;SDS011;35698;50.232;30.540;2023-04-08T21:38:43;20.59;;;11.23;;
49800;SDS011;35698;50.232;30.540;2023-04-08T21:40:06;16.07;;;10.52;;
49800;SDS011;35698;50.232;30.540;2023-04-08T21:41:20;16.36;;;11.56;;
49800;SDS011;35698;50.232;30.540;2023-04-08T21:42:24;24.57;;;13.38;;
49800;SDS011;35698;50.232;30.540;2023-04-08T21:43:39;17.78;;;12.02;;
49800;SDS011;35698;50.232;30.540;2023-04-08T21:44:50;17.19;;;12.53;;
49800;SDS011;35698;50.232;30.540;2023-04-08T21:45:53;18.57;;;12.81;;
49800;SDS011;35698;50.232;30.540;2023-04-08T21:47:11;16.22;;;11.74;;
49800;SDS011;35698;50.232;30.540;2023-04-08T21:48:16;15.86;;;11.37;;
49800;SDS011;35698;50.232;30.540;2023-04-08T21:49:27;16.29;;;11.67;;
49800;SDS011;35698;50.232;30.540;2023-04-08T21:50:35;19.84;;;11.97;;
49800;SDS011;35698;50.232;30.540;2023-04-08T21:51:41;19.01;;;11.68;;
49800;SDS011;35698;50.232;30.540;2023-04-08T21:52:44;19.77;;;12.98;;
49800;SDS011;35698;50.232;30.540;2023-04-08T21:54:14;17.82;;;12.57;;
49800;SDS011;35698;50.232;30.540;2023-04-08T21:55:18;23.38;;;14.34;;
49800;SDS011;35698;50.232;30.540;2023-04-08T21:56:21;23.83;;;13.58;;
49800;SDS011;35698;50.232;30.540;2023-04-08T21:57:24;25.99;;;14.31;;
49800;SDS011;35698;50.232;30.540;2023-04-08T21:58:31;27.88;;;15.16;;
49800;SDS011;35698;50.232;30.540;2023-04-08T21:59:56;19.94;;;13.47;;
49800;SDS011;35698;50.232;30.540;2023-04-08T22:01:08;25.66;;;14.08;;
49800;SDS011;35698;50.232;30.540;2023-04-08T22:02:11;26.52;;;16.42;;
49800;SDS011;35698;50.232;30.540;2023-04-08T22:03:22;20.86;;;13.41;;
49800;SDS011;35698;50.232;30.540;2023-04-08T22:04:26;24.62;;;13.64;;
49800;SDS011;35698;50.232;30.540;2023-04-08T22:05:30;24.26;;;14.58;;
49800;SDS011;35698;50.232;30.540;2023-04-08T22:06:44;23.53;;;14.45;;
49800;SDS011;35698;50.232;30.540;2023-04-08T22:07:49;22.77;;;14.20;;
49800;SDS011;35698;50.232;30.540;2023-04-08T22:08:52;36.99;;;20.85;;
49800;SDS011;35698;50.232;30.540;2023-04-08T22:10:04;29.27;;;16.08;;
49800;SDS011;35698;50.232;30.540;2023-04-08T22:11:09;37.77;;;19.63;;
49800;SDS011;35698;50.232;30.540;2023-04-08T22:12:22;32.73;;;19.44;;
49800;SDS011;35698;50.232;30.540;2023-04-08T22:13:27;28.81;;;16.94;;
49800;SDS011;35698;50.232;30.540;2023-04-08T22:14:40;30.13;;;18.26;;
49800;SDS011;35698;50.232;30.540;2023-04-08T22:15:43;30.61;;;18.74;;
49800;SDS011;35698;50.232;30.540;2023-04-08T22:16:54;32.04;;;19.28;;
49800;SDS011;35698;50.232;30.540;2023-04-08T22:17:57;30.05;;;19.80;;
49800;SDS011;35698;50.232;30.540;2023-04-08T22:19:11;30.18;;;16.84;;
49800;SDS011;35698;50.232;30.540;2023-04-08T22:20:14;38.14;;;17.98;;
49800;SDS011;35698;50.232;30.540;2023-04-08T22:21:36;23.63;;;14.59;;
49800;SDS011;35698;50.232;30.540;2023-04-08T22:22:40;24.59;;;14.79;;
49800;SDS011;35698;50.232;30.540;2023-04-08T22:23:51;24.99;;;15.72;;
49800;SDS011;35698;50.232;30.540;2023-04-08T22:24:55;27.74;;;16.42;;
49800;SDS011;35698;50.232;30.540;2023-04-08T22:26:18;26.13;;;15.76;;
49800;SDS011;35698;50.232;30.540;2023-04-08T22:27:21;26.48;;;12.92;;
49800;SDS011;35698;50.232;30.540;2023-04-08T22:28:42;19.69;;;13.66;;
49800;SDS011;35698;50.232;30.540;2023-04-08T22:29:46;23.26;;;15.48;;